Time;durP1;ratioP1;P1;durP2;ratioP2;P2;SDS_P1;SDS_P2;PMS_P1;PMS_P2;Temp;Humidity;BMP_temperature;BMP_pressure;BME280_temperature;BME280_humidity;BME280_pressure;Samples;Min_cycle;Max_cycle;Signal;HPM_P1;HPM_P2
2023/06/08 00:01:40;;;;;;;11.57;6.30;;;12.70;99.90;;;;;;5153784;27;20051;-71
2023/06/08 00:04:07;;;;;;;11.98;6.68;;;12.70;99.90;;;;;;5118515;27;20049;-72
2023/06/08 00:06:33;;;;;;;11.13;7.22;;;12.70;99.90;;;;;;5154309;27;20046;-71
2023/06/08 00:09:04;;;;;;;15.13;8.45;;;12.70;99.90;;;;;;5154012;27;20053;-73
2023/06/08 00:11:31;;;;;;;14.15;8.23;;;12.70;99.90;;;;;;5153509;27;20507;-71
2023/06/08 00:13:57;;;;;;;12.35;7.60;;;12.70;99.90;;;;;;5153214;27;20042;-72
2023/06/08 00:16:24;;;;;;;12.93;7.47;;;12.80;99.90;;;;;;5152856;27;20091;-71
2023/06/08 00:18:54;;;;;;;14.50;7.70;;;12.60;99.90;;;;;;5135240;27;20043;-72
2023/06/08 00:21:22;;;;;;;16.65;7.85;;;12.80;99.90;;;;;;5153483;27;20107;-71
2023/06/08 00:23:48;;;;;;;10.60;7.47;;;12.80;99.90;;;;;;5153407;27;20050;-72
2023/06/08 00:26:14;;;;;;;15.60;7.63;;;12.80;99.90;;;;;;5153373;27;20042;-71
2023/06/08 00:28:40;;;;;;;13.63;8.23;;;12.80;99.90;;;;;;5153475;27;20069;-71
2023/06/08 00:31:06;;;;;;;18.75;8.60;;;12.80;99.90;;;;;;5153739;27;20042;-71
2023/06/08 00:33:33;;;;;;;10.10;7.53;;;12.80;99.90;;;;;;5136621;27;20046;-71
2023/06/08 00:35:58;;;;;;;11.30;7.80;;;12.80;99.90;;;;;;5139315;27;20089;-71
2023/06/08 00:38:24;;;;;;;12.50;8.52;;;12.80;99.90;;;;;;5157367;27;20043;-71
2023/06/08 00:40:50;;;;;;;14.85;8.43;;;12.80;99.90;;;;;;5157324;27;20043;-71
2023/06/08 00:43:16;;;;;;;9.98;7.95;;;12.80;99.90;;;;;;5157003;27;20050;-72
2023/06/08 00:45:41;;;;;;;15.13;8.73;;;12.80;99.90;;;;;;5157174;27;20497;-71
2023/06/08 00:48:07;;;;;;;13.82;7.60;;;12.80;99.90;;;;;;5156847;27;20420;-71
2023/06/08 00:50:33;;;;;;;14.35;8.63;;;12.70;99.90;;;;;;5156822;27;20463;-71
2023/06/08 00:52:59;;;;;;;13.18;7.80;;;12.70;99.90;;;;;;5156410;27;20058;-71
2023/06/08 00:55:27;;;;;;;12.35;7.50;;;12.70;99.90;;;;;;5138364;27;20062;-72
2023/06/08 00:57:53;;;;;;;11.70;7.95;;;12.70;99.90;;;;;;5157091;27;20059;-71
2023/06/08 01:00:20;;;;;;;13.43;7.18;;;12.70;99.90;;;;;;5156965;27;20047;-72
2023/06/08 01:02:47;;;;;;;11.93;7.90;;;12.70;99.90;;;;;;5156415;27;20039;-72
2023/06/08 01:05:16;;;;;;;14.98;8.80;;;12.70;99.90;;;;;;5156664;27;20062;-71
2023/06/08 01:07:49;;;;;;;12.82;8.50;;;12.70;99.90;;;;;;5156503;27;20134;-71
2023/06/08 01:10:32;;;;;;;12.48;8.88;;;12.70;99.90;;;;;;5156797;27;20082;-71
2023/06/08 01:13:08;;;;;;;16.90;8.95;;;12.60;99.90;;;;;;5156942;27;20051;-71
2023/06/08 01:15:41;;;;;;;15.68;8.77;;;12.70;99.90;;;;;;5156768;27;20123;-71
2023/06/08 01:18:08;;;;;;;15.00;8.68;;;12.70;99.90;;;;;;5157036;27;20416;-71
2023/06/08 01:21:22;;;;;;;21.63;8.98;;;12.70;99.90;;;;;;5141364;27;20043;-71
2023/06/08 01:24:11;;;;;;;;;;;12.70;99.90;;;;;;5159332;27;20088;-71
2023/06/08 01:26:45;;;;;;;17.98;9.82;;;12.60;99.90;;;;;;5157899;27;19918;-71
2023/06/08 01:29:13;;;;;;;13.23;8.85;;;12.70;99.90;;;;;;5157162;27;20051;-71
2023/06/08 01:31:39;;;;;;;14.90;8.95;;;12.70;99.90;;;;;;5157121;27;20038;-72
2023/06/08 01:34:06;;;;;;;13.93;8.35;;;12.70;99.90;;;;;;5156631;27;20129;-72
2023/06/08 01:36:56;;;;;;;12.02;7.82;;;12.70;99.90;;;;;;5156506;27;20466;-72
2023/06/08 01:39:33;;;;;;;17.67;9.13;;;12.70;99.90;;;;;;5140156;27;20050;-72
2023/06/08 01:42:04;;;;;;;10.65;7.95;;;12.70;99.90;;;;;;5155900;27;20038;-73
2023/06/08 01:44:34;;;;;;;15.40;8.30;;;12.70;99.90;;;;;;5155817;27;20049;-73
2023/06/08 01:47:01;;;;;;;12.75;7.15;;;12.60;99.90;;;;;;5155801;27;20133;-72
2023/06/08 01:49:30;;;;;;;12.32;7.45;;;12.60;99.90;;;;;;5155631;27;20515;-72
2023/06/08 01:51:57;;;;;;;12.77;7.97;;;12.70;99.90;;;;;;5155681;27;20046;-73
2023/06/08 01:54:23;;;;;;;13.02;8.00;;;12.70;99.90;;;;;;5156072;27;20054;-73
2023/06/08 01:56:49;;;;;;;12.85;7.72;;;12.70;99.90;;;;;;5155455;27;20478;-72
2023/06/08 01:59:15;;;;;;;15.68;9.00;;;12.70;99.90;;;;;;5155543;27;20043;-72
2023/06/08 02:01:43;;;;;;;18.48;8.98;;;12.80;99.90;;;;;;5136801;27;20047;-72
2023/06/08 02:04:09;;;;;;;17.60;8.25;;;12.80;99.90;;;;;;5137094;27;20046;-72
2023/06/08 02:06:35;;;;;;;23.77;10.25;;;12.80;99.90;;;;;;5155311;27;20050;-70
2023/06/08 02:09:01;;;;;;;15.52;8.43;;;12.80;99.90;;;;;;5155195;27;20386;-71
2023/06/08 02:11:27;;;;;;;17.65;9.60;;;12.80;99.90;;;;;;5137029;27;20053;-71
2023/06/08 02:13:53;;;;;;;17.23;9.63;;;12.80;99.90;;;;;;5155096;27;20046;-70
2023/06/08 02:16:18;;;;;;;15.18;10.07;;;12.80;99.90;;;;;;5119453;27;20042;-70
2023/06/08 02:18:45;;;;;;;15.07;8.85;;;12.80;99.90;;;;;;5155191;27;20039;-70
2023/06/08 02:21:11;;;;;;;18.63;10.02;;;12.80;99.90;;;;;;5136729;27;20043;-70
2023/06/08 02:23:38;;;;;;;16.52;9.85;;;12.80;99.90;;;;;;5136231;27;20042;-69
2023/06/08 02:26:06;;;;;;;16.63;10.13;;;12.80;99.90;;;;;;5154892;27;20070;-70
2023/06/08 02:28:31;;;;;;;15.23;9.48;;;14.00;99.90;;;;;;5154909;27;20053;-70
2023/06/08 02:30:57;;;;;;;16.17;8.75;;;12.80;99.90;;;;;;5155414;27;20039;-70
2023/06/08 02:33:23;;;;;;;15.48;8.65;;;12.80;99.90;;;;;;5154876;27;20487;-70
2023/06/08 02:35:49;;;;;;;14.52;9.88;;;12.80;99.90;;;;;;5154939;27;20092;-70
2023/06/08 02:38:16;;;;;;;20.70;9.40;;;12.70;99.90;;;;;;5154811;27;20042;-70
2023/06/08 02:40:42;;;;;;;19.67;9.43;;;12.70;99.90;;;;;;5136223;27;20047;-70
2023/06/08 02:43:11;;;;;;;20.10;10.00;;;12.70;99.90;;;;;;5154734;27;20103;-70
2023/06/08 02:45:37;;;;;;;19.63;10.93;;;12.70;99.90;;;;;;5154510;27;20049;-70
2023/06/08 02:48:03;;;;;;;15.45;10.30;;;12.70;99.90;;;;;;5155017;27;20066;-70
2023/06/08 02:50:30;;;;;;;19.92;9.68;;;12.60;99.90;;;;;;5154468;27;20115;-70
2023/06/08 02:52:55;;;;;;;16.20;10.02;;;12.70;99.90;;;;;;5154509;27;20062;-70
2023/06/08 02:55:22;;;;;;;14.93;9.35;;;12.70;99.90;;;;;;5136279;27;20073;-69
2023/06/08 02:57:49;;;;;;;17.42;9.10;;;12.70;99.90;;;;;;5154302;27;20042;-70
2023/06/08 03:00:15;;;;;;;18.30;9.35;;;12.70;99.90;;;;;;5154274;27;20474;-70
2023/06/08 03:02:41;;;;;;;16.08;8.77;;;12.70;99.90;;;;;;5154330;27;20100;-70
2023/06/08 03:05:07;;;;;;;17.13;10.20;;;12.70;99.90;;;;;;5154318;27;20046;-70
2023/06/08 03:07:36;;;;;;;16.50;10.07;;;12.70;99.90;;;;;;5154760;27;20051;-70
2023/06/08 03:10:03;;;;;;;15.85;9.82;;;12.70;99.90;;;;;;5136553;27;20121;-71
2023/06/08 03:12:30;;;;;;;15.27;10.35;;;12.60;99.90;;;;;;5154729;27;20047;-70
2023/06/08 03:14:55;;;;;;;17.27;10.23;;;12.60;99.90;;;;;;5154353;27;20078;-70
2023/06/08 03:17:24;;;;;;;13.38;9.48;;;12.60;99.90;;;;;;5153921;27;20174;-70
2023/06/08 03:19:50;;;;;;;16.70;9.63;;;12.60;99.90;;;;;;5135710;27;20039;-70
2023/06/08 03:22:19;;;;;;;19.13;9.75;;;12.60;99.90;;;;;;5137121;27;20118;-70
2023/06/08 03:24:48;;;;;;;13.57;9.65;;;12.60;99.90;;;;;;5137172;27;20107;-70
2023/06/08 03:27:14;;;;;;;17.88;10.30;;;12.60;99.90;;;;;;5154805;27;20451;-70
2023/06/08 03:29:40;;;;;;;15.30;9.68;;;12.60;99.90;;;;;;5154549;27;20114;-70
2023/06/08 03:32:06;;;;;;;15.93;10.05;;;12.60;99.90;;;;;;5154363;27;20101;-70
2023/06/08 03:34:32;;;;;;;18.35;8.55;;;12.60;99.90;;;;;;5154516;27;20046;-70
2023/06/08 03:36:58;;;;;;;15.18;10.25;;;12.60;99.90;;;;;;5154767;27;20324;-70
2023/06/08 03:39:24;;;;;;;13.38;8.50;;;12.60;99.90;;;;;;5154044;27;20463;-70
2023/06/08 03:41:50;;;;;;;14.55;9.23;;;12.60;99.90;;;;;;5154427;27;20047;-70
2023/06/08 03:44:15;;;;;;;12.82;9.43;;;12.50;99.90;;;;;;5154191;27;20046;-70
2023/06/08 03:46:42;;;;;;;15.23;9.68;;;12.50;99.90;;;;;;5153913;27;20042;-70
2023/06/08 03:49:07;;;;;;;15.27;9.82;;;12.50;99.90;;;;;;5153958;27;20046;-70
2023/06/08 03:51:33;;;;;;;15.90;9.38;;;12.50;99.90;;;;;;5153881;27;20039;-70
2023/06/08 03:53:59;;;;;;;16.48;10.52;;;12.50;99.90;;;;;;5153438;27;20086;-70
2023/06/08 03:56:25;;;;;;;15.88;10.48;;;12.40;99.90;;;;;;5154519;27;20049;-70
2023/06/08 03:58:51;;;;;;;16.10;9.43;;;12.50;99.90;;;;;;5154049;27;20047;-70
2023/06/08 04:01:17;;;;;;;16.23;9.15;;;12.50;99.90;;;;;;5153828;27;20074;-70
2023/06/08 04:03:43;;;;;;;13.57;8.93;;;12.50;99.90;;;;;;5154071;27;20055;-70
2023/06/08 04:06:09;;;;;;;13.90;9.07;;;12.50;99.90;;;;;;5153865;27;20046;-70
2023/06/08 04:08:41;;;;;;;15.65;8.90;;;12.50;99.90;;;;;;5137253;27;20410;-70
2023/06/08 04:11:08;;;;;;;18.15;8.93;;;12.60;99.90;;;;;;5139664;27;20046;-70
2023/06/08 04:13:36;;;;;;;15.30;8.98;;;12.60;99.90;;;;;;5139415;27;20103;-70
2023/06/08 04:16:07;;;;;;;15.45;8.98;;;12.60;99.90;;;;;;5158250;27;20042;-70
2023/06/08 04:18:32;;;;;;;13.93;9.02;;;12.60;99.90;;;;;;5158280;27;20046;-70
2023/06/08 04:20:58;;;;;;;12.68;8.32;;;12.60;99.90;;;;;;5157859;27;20504;-70
2023/06/08 04:23:24;;;;;;;11.88;9.32;;;12.70;99.90;;;;;;5157372;27;20038;-71
2023/06/08 04:25:49;;;;;;;15.93;10.00;;;12.70;99.90;;;;;;5157404;27;20035;-70
2023/06/08 04:28:15;;;;;;;16.73;9.57;;;12.70;99.90;;;;;;5157320;27;20125;-70
2023/06/08 04:30:41;;;;;;;15.00;9.63;;;13.00;99.90;;;;;;5157908;27;20038;-71
2023/06/08 04:33:07;;;;;;;15.95;9.48;;;12.80;99.90;;;;;;5157163;27;20501;-71
2023/06/08 04:35:33;;;;;;;12.65;9.25;;;12.80;99.90;;;;;;5157039;27;20046;-71
2023/06/08 04:37:59;;;;;;;15.32;9.75;;;12.70;99.90;;;;;;5157105;27;20415;-71
2023/06/08 04:40:25;;;;;;;16.65;9.00;;;12.80;99.90;;;;;;5157066;27;20134;-71
2023/06/08 04:42:51;;;;;;;12.68;9.85;;;12.80;99.90;;;;;;5156647;27;20531;-70
2023/06/08 04:45:18;;;;;;;15.63;9.68;;;12.80;99.90;;;;;;5156614;27;20053;-70
2023/06/08 04:47:45;;;;;;;16.60;10.48;;;12.70;99.90;;;;;;5157098;27;20042;-71
2023/06/08 04:50:11;;;;;;;13.52;9.68;;;12.80;99.90;;;;;;5156994;27;20053;-70
2023/06/08 04:52:45;;;;;;;15.88;9.18;;;12.80;99.90;;;;;;5156454;27;20076;-72
2023/06/08 04:55:13;;;;;;;17.02;9.93;;;12.80;99.90;;;;;;5156964;27;20054;-71
2023/06/08 04:57:42;;;;;;;23.02;11.68;;;12.90;99.90;;;;;;5156485;27;20046;-71
2023/06/08 05:00:09;;;;;;;18.70;12.05;;;12.90;99.90;;;;;;5157372;27;20057;-71
2023/06/08 05:02:37;;;;;;;17.70;11.20;;;12.90;99.90;;;;;;5156384;27;20081;-70
2023/06/08 05:05:03;;;;;;;18.85;11.70;;;12.90;99.90;;;;;;5156671;27;20121;-71
2023/06/08 05:07:29;;;;;;;19.35;11.38;;;12.90;99.90;;;;;;5156399;27;20054;-71
2023/06/08 05:09:56;;;;;;;14.60;10.35;;;12.90;99.90;;;;;;5156562;27;20502;-71
2023/06/08 05:12:22;;;;;;;20.02;12.05;;;13.00;99.90;;;;;;5138335;27;20039;-71
2023/06/08 05:14:48;;;;;;;16.42;11.10;;;13.00;99.90;;;;;;5156329;27;20160;-71
2023/06/08 05:17:13;;;;;;;15.15;9.27;;;13.10;99.90;;;;;;5156886;27;20424;-71
2023/06/08 05:19:39;;;;;;;12.15;8.57;;;13.10;99.90;;;;;;5156183;27;20038;-70
2023/06/08 05:22:05;;;;;;;15.23;8.98;;;13.10;99.90;;;;;;5156167;27;20043;-71
2023/06/08 05:24:30;;;;;;;14.45;8.60;;;13.10;99.90;;;;;;5156559;27;20081;-71
2023/06/08 05:26:56;;;;;;;15.63;10.52;;;13.20;99.90;;;;;;5138331;27;20070;-71
2023/06/08 05:29:22;;;;;;;16.13;10.32;;;13.30;99.90;;;;;;5155945;27;20486;-71
2023/06/08 05:31:49;;;;;;;15.30;11.88;;;13.00;99.90;;;;;;5156495;27;20126;-70
2023/06/08 05:34:15;;;;;;;15.82;10.48;;;13.40;99.90;;;;;;5138254;27;20477;-71
2023/06/08 05:36:40;;;;;;;19.13;10.15;;;13.50;99.90;;;;;;5155814;27;20095;-71
2023/06/08 05:39:06;;;;;;;12.07;8.43;;;13.60;99.90;;;;;;5155921;27;20042;-71
2023/06/08 05:41:32;;;;;;;16.83;8.15;;;13.60;99.90;;;;;;5155972;27;20431;-71
2023/06/08 05:43:58;;;;;;;15.10;8.85;;;13.50;99.90;;;;;;5155647;27;20056;-71
2023/06/08 05:46:24;;;;;;;11.98;7.85;;;13.50;99.90;;;;;;5155836;27;20050;-71
2023/06/08 05:48:50;;;;;;;12.93;7.97;;;13.60;99.90;;;;;;5155244;27;20433;-71
2023/06/08 05:51:15;;;;;;;11.05;7.70;;;13.70;99.90;;;;;;5156102;27;20046;-71
2023/06/08 05:53:41;;;;;;;14.48;8.43;;;13.80;99.90;;;;;;5155118;27;20459;-70
2023/06/08 05:56:07;;;;;;;12.90;7.22;;;13.80;99.90;;;;;;5156113;27;20107;-71
2023/06/08 05:58:33;;;;;;;14.40;8.00;;;13.80;99.90;;;;;;5155083;27;20452;-71
2023/06/08 06:00:59;;;;;;;15.02;7.57;;;13.90;99.90;;;;;;5155652;27;20035;-70
2023/06/08 06:03:25;;;;;;;14.68;7.55;;;14.00;99.90;;;;;;5155193;27;20043;-71
2023/06/08 06:05:50;;;;;;;17.65;8.05;;;14.00;99.90;;;;;;5155230;27;20095;-71
2023/06/08 06:08:16;;;;;;;14.55;7.80;;;14.20;99.90;;;;;;5155748;27;20175;-71
2023/06/08 06:10:42;;;;;;;16.92;7.68;;;14.40;99.90;;;;;;5155219;27;20057;-71
2023/06/08 06:13:07;;;;;;;17.55;8.77;;;14.60;99.90;;;;;;5155552;27;20042;-72
2023/06/08 06:15:33;;;;;;;12.70;6.60;;;14.80;99.90;;;;;;5155355;27;20566;-71
2023/06/08 06:17:59;;;;;;;17.35;7.30;;;15.00;99.90;;;;;;5154818;27;20042;-71
2023/06/08 06:20:27;;;;;;;14.02;6.75;;;15.20;99.90;;;;;;5154896;27;20042;-71
2023/06/08 06:22:53;;;;;;;12.05;6.60;;;15.40;99.90;;;;;;5155143;27;20130;-71
2023/06/08 06:25:21;;;;;;;9.60;6.00;;;15.60;99.90;;;;;;5154898;27;20101;-71
2023/06/08 06:27:47;;;;;;;14.93;6.47;;;16.00;99.90;;;;;;5154894;27;20114;-71
2023/06/08 06:30:13;;;;;;;11.60;6.70;;;16.80;99.90;;;;;;5154790;27;20081;-72
2023/06/08 06:32:39;;;;;;;14.23;7.20;;;17.60;99.90;;;;;;5154744;27;20502;-73
2023/06/08 06:35:05;;;;;;;14.48;6.32;;;18.00;99.90;;;;;;5154823;27;20070;-72
2023/06/08 06:37:34;;;;;;;9.30;5.72;;;18.30;99.90;;;;;;5155026;27;20054;-71
2023/06/08 06:40:04;;;;;;;11.20;5.68;;;18.10;99.90;;;;;;5154777;27;20118;-72
2023/06/08 06:42:30;;;;;;;11.52;6.50;;;18.10;99.90;;;;;;5136252;27;20450;-71
2023/06/08 06:44:57;;;;;;;8.35;4.78;;;18.50;99.90;;;;;;5136576;27;20053;-71
2023/06/08 06:47:22;;;;;;;10.48;5.47;;;18.40;99.90;;;;;;5136365;27;20201;-71
2023/06/08 06:49:48;;;;;;;15.48;6.05;;;18.70;99.90;;;;;;5154577;27;20126;-72
2023/06/08 06:52:14;;;;;;;13.65;5.93;;;19.20;99.90;;;;;;5154151;27;20041;-70
2023/06/08 06:54:39;;;;;;;8.43;4.38;;;19.20;99.90;;;;;;5155087;27;20047;-71
2023/06/08 06:57:06;;;;;;;23.50;7.88;;;19.70;99.90;;;;;;5136138;27;20432;-72
2023/06/08 06:59:32;;;;;;;10.27;4.35;;;19.90;99.90;;;;;;5154232;27;20475;-70
2023/06/08 07:01:57;;;;;;;9.43;4.32;;;20.50;99.90;;;;;;5154593;27;20035;-70
2023/06/08 07:04:23;;;;;;;10.85;4.68;;;20.90;99.90;;;;;;5136316;27;20448;-70
2023/06/08 07:06:51;;;;;;;8.52;4.50;;;20.40;99.90;;;;;;5154332;27;20042;-70
2023/06/08 07:09:17;;;;;;;7.05;4.50;;;20.50;99.90;;;;;;5136515;27;20054;-73
2023/06/08 07:11:42;;;;;;;15.38;4.82;;;20.70;99.90;;;;;;5101545;27;20052;-71
2023/06/08 07:14:08;;;;;;;9.35;3.88;;;21.00;99.90;;;;;;5154638;27;20050;-72
2023/06/08 07:16:34;;;;;;;9.85;4.47;;;20.60;99.40;;;;;;5136053;27;20043;-70
2023/06/08 07:19:00;;;;;;;7.90;4.45;;;20.10;97.10;;;;;;5154227;27;20047;-69
2023/06/08 07:21:25;;;;;;;8.60;4.45;;;20.40;99.20;;;;;;5154124;27;20117;-70
2023/06/08 07:23:51;;;;;;;7.20;3.88;;;21.00;99.90;;;;;;5154188;27;20047;-71
2023/06/08 07:26:17;;;;;;;9.43;4.32;;;20.90;99.80;;;;;;5136414;27;20039;-70
2023/06/08 07:28:43;;;;;;;6.60;4.85;;;21.00;99.30;;;;;;5154124;27;20082;-70
2023/06/08 07:31:09;;;;;;;8.48;4.53;;;20.60;99.70;;;;;;5154275;27;20034;-70
2023/06/08 07:33:34;;;;;;;6.43;4.10;;;20.70;99.90;;;;;;5154074;27;20454;-69
2023/06/08 07:36:00;;;;;;;6.22;3.78;;;20.40;97.30;;;;;;5154764;27;20479;-70
2023/06/08 07:38:26;;;;;;;10.98;4.10;;;20.90;98.60;;;;;;5153994;27;20047;-70
2023/06/08 07:40:51;;;;;;;8.50;3.97;;;21.60;99.10;;;;;;5153908;27;20038;-70
2023/06/08 07:43:17;;;;;;;10.20;4.32;;;22.00;98.20;;;;;;5156959;27;20098;-71
2023/06/08 07:45:44;;;;;;;7.68;4.45;;;22.00;98.00;;;;;;5158183;27;20050;-70
2023/06/08 07:48:09;;;;;;;7.55;4.22;;;22.20;97.80;;;;;;5158179;27;20046;-71
2023/06/08 07:50:35;;;;;;;13.20;4.45;;;22.60;97.40;;;;;;5157859;27;20041;-71
2023/06/08 07:53:01;;;;;;;8.48;4.60;;;22.90;97.10;;;;;;5158181;27;20055;-71
2023/06/08 07:55:27;;;;;;;8.25;4.13;;;23.00;96.40;;;;;;5158150;27;20054;-71
2023/06/08 07:57:52;;;;;;;9.52;3.85;;;22.40;95.40;;;;;;5158001;27;20054;-70
2023/06/08 08:00:19;;;;;;;8.38;4.28;;;22.00;96.60;;;;;;5157938;27;20406;-71
2023/06/08 08:02:45;;;;;;;6.68;4.57;;;22.30;96.80;;;;;;5139199;27;20087;-70
2023/06/08 08:05:11;;;;;;;9.10;4.20;;;22.50;95.60;;;;;;5158317;27;20454;-71
2023/06/08 08:07:37;;;;;;;10.15;4.90;;;22.70;96.80;;;;;;5157862;27;20125;-70
2023/06/08 08:10:03;;;;;;;6.80;4.55;;;22.40;95.00;;;;;;5157673;27;20097;-71
2023/06/08 08:12:29;;;;;;;10.35;4.55;;;21.80;96.40;;;;;;5158112;27;20058;-70
2023/06/08 08:14:54;;;;;;;10.98;4.95;;;22.00;96.50;;;;;;5158055;27;20050;-70
2023/06/08 08:17:20;;;;;;;10.10;5.43;;;21.90;96.20;;;;;;5157741;27;20502;-70
2023/06/08 08:19:46;;;;;;;9.98;5.63;;;22.10;96.00;;;;;;5139098;27;20118;-71
2023/06/08 08:22:11;;;;;;;13.73;5.07;;;21.80;95.90;;;;;;5157457;27;20041;-70
2023/06/08 08:24:37;;;;;;;6.70;4.25;;;21.50;96.50;;;;;;5139091;27;20045;-70
2023/06/08 08:27:03;;;;;;;11.55;4.28;;;21.50;95.60;;;;;;5157241;27;20061;-71
2023/06/08 08:29:29;;;;;;;48.08;9.70;;;21.70;96.60;;;;;;5157678;27;20052;-71
2023/06/08 08:31:55;;;;;;;16.10;4.40;;;22.10;96.10;;;;;;5138740;27;20074;-71
2023/06/08 08:34:20;;;;;;;8.82;4.40;;;21.80;95.80;;;;;;5157225;27;20042;-70
2023/06/08 08:36:46;;;;;;;35.22;7.85;;;22.00;95.00;;;;;;5139008;27;20444;-69
2023/06/08 08:39:14;;;;;;;8.25;4.70;;;21.90;94.80;;;;;;5157071;27;20078;-70
2023/06/08 08:41:41;;;;;;;22.15;6.53;;;21.50;96.00;;;;;;5138843;27;20084;-71
2023/06/08 08:44:15;;;;;;;10.00;4.82;;;21.40;95.80;;;;;;5156927;27;20428;-73
2023/06/08 08:46:42;;;;;;;7.63;4.07;;;21.80;96.10;;;;;;5156951;27;20050;-73
2023/06/08 08:49:15;;;;;;;10.02;4.30;;;22.70;96.20;;;;;;5156794;27;20055;-73
2023/06/08 08:51:51;;;;;;;8.90;4.45;;;22.80;95.20;;;;;;5157426;27;20447;-69
2023/06/08 08:54:17;;;;;;;8.23;4.13;;;23.00;94.60;;;;;;5156332;27;20447;-70
2023/06/08 08:56:44;;;;;;;7.70;3.92;;;22.40;94.90;;;;;;5156712;27;20513;-70
2023/06/08 08:59:10;;;;;;;9.55;4.35;;;22.30;95.10;;;;;;5156860;27;20070;-70
2023/06/08 09:01:40;;;;;;;9.65;4.68;;;22.70;94.50;;;;;;5138430;27;20047;-70
2023/06/08 09:04:06;;;;;;;9.52;4.75;;;22.80;95.10;;;;;;5156686;27;20424;-71
2023/06/08 09:06:32;;;;;;;7.13;4.15;;;22.30;94.70;;;;;;5138936;27;20046;-71
2023/06/08 09:08:58;;;;;;;8.85;4.82;;;22.90;94.80;;;;;;5156580;27;20587;-71
2023/06/08 09:11:24;;;;;;;10.40;4.60;;;23.00;94.10;;;;;;5156406;27;20118;-72
2023/06/08 09:14:07;;;;;;;8.38;4.53;;;22.70;94.10;;;;;;5156893;27;20113;-72
2023/06/08 09:16:43;;;;;;;10.75;4.70;;;23.10;94.20;;;;;;5156460;27;20063;-71
2023/06/08 09:19:10;;;;;;;10.50;5.00;;;22.90;94.20;;;;;;5156393;27;20466;-71
2023/06/08 09:21:35;;;;;;;9.40;4.05;;;22.90;94.70;;;;;;5156367;27;20110;-70
2023/06/08 09:24:11;;;;;;;8.85;4.57;;;22.70;94.90;;;;;;5156417;27;20101;-71
2023/06/08 09:26:38;;;;;;;9.35;4.22;;;22.80;94.10;;;;;;5156334;27;20047;-71
2023/06/08 09:29:05;;;;;;;10.48;4.35;;;22.40;94.60;;;;;;5156173;27;20053;-72
2023/06/08 09:31:31;;;;;;;8.88;4.68;;;22.60;94.40;;;;;;5137526;27;20047;-71
2023/06/08 09:34:10;;;;;;;8.30;4.10;;;22.70;94.70;;;;;;5155941;27;20078;-72
2023/06/08 09:36:39;;;;;;;6.88;4.20;;;23.00;93.90;;;;;;5156584;27;20074;-70
2023/06/08 09:39:07;;;;;;;9.40;4.50;;;23.10;94.50;;;;;;5155785;27;20045;-70
2023/06/08 09:41:36;;;;;;;12.90;4.55;;;23.50;94.20;;;;;;5155643;27;20059;-72
2023/06/08 09:44:17;;;;;;;9.27;4.43;;;23.60;94.50;;;;;;5156087;27;20043;-71
2023/06/08 09:46:47;;;;;;;10.10;4.35;;;23.10;93.20;;;;;;5155823;27;20098;-71
2023/06/08 09:49:14;;;;;;;12.80;4.85;;;23.30;94.60;;;;;;5155995;27;20474;-73
2023/06/08 09:51:49;;;;;;;10.93;4.45;;;23.30;94.20;;;;;;5156316;27;20035;-73
2023/06/08 09:54:16;;;;;;;9.40;3.53;;;23.40;93.30;;;;;;5137116;27;20047;-72
2023/06/08 09:57:03;;;;;;;8.38;3.95;;;23.00;93.60;;;;;;5155627;27;20047;-74
2023/06/08 09:59:36;;;;;;;6.60;3.83;;;23.40;93.80;;;;;;5155262;27;20053;-72
2023/06/08 10:02:13;;;;;;;9.77;3.78;;;24.10;94.20;;;;;;5155839;27;20035;-72
2023/06/08 10:04:45;;;;;;;12.65;4.57;;;23.20;93.40;;;;;;5155473;27;20042;-72
2023/06/08 10:07:29;;;;;;;8.10;4.10;;;22.60;94.00;;;;;;5155485;27;20047;-73
2023/06/08 10:10:09;;;;;;;6.35;3.72;;;22.50;93.70;;;;;;5155677;27;20050;-72
2023/06/08 10:12:35;;;;;;;5.93;3.80;;;23.00;94.50;;;;;;5136946;27;20061;-72
2023/06/08 10:15:02;;;;;;;6.30;3.25;;;23.20;94.30;;;;;;5155053;27;20043;-71
2023/06/08 10:17:29;;;;;;;7.70;3.75;;;22.60;94.30;;;;;;5155290;27;20047;-72
2023/06/08 10:19:56;;;;;;;8.15;3.97;;;23.00;94.60;;;;;;5154889;27;20051;-71
2023/06/08 10:22:23;;;;;;;6.95;3.65;;;23.30;94.10;;;;;;5155227;27;20041;-71
2023/06/08 10:24:50;;;;;;;5.63;3.15;;;23.10;94.50;;;;;;5155390;27;20035;-72
2023/06/08 10:27:33;;;;;;;8.55;4.05;;;22.80;94.70;;;;;;5154755;27;20042;-72
2023/06/08 10:30:04;;;;;;;6.65;4.28;;;23.20;94.20;;;;;;5154384;27;20505;-71
2023/06/08 10:32:42;;;;;;;8.98;4.65;;;22.70;93.90;;;;;;5154802;27;20068;-71
2023/06/08 10:35:09;;;;;;;9.50;4.90;;;22.40;93.80;;;;;;5136581;27;20085;-71
2023/06/08 10:37:37;;;;;;;6.47;3.55;;;22.90;94.70;;;;;;5155438;27;20146;-73
2023/06/08 10:40:10;;;;;;;8.25;3.45;;;23.00;94.50;;;;;;5154642;27;20054;-72
2023/06/08 10:42:36;;;;;;;5.88;3.97;;;23.20;93.80;;;;;;5154476;27;20043;-70
2023/06/08 10:45:04;;;;;;;9.82;4.38;;;22.70;94.40;;;;;;5154290;27;20049;-71
2023/06/08 10:47:35;;;;;;;7.65;3.63;;;22.90;94.70;;;;;;5154445;27;20042;-72
2023/06/08 10:50:03;;;;;;;7.35;3.72;;;23.30;94.30;;;;;;5154687;27;20047;-72
2023/06/08 10:52:39;;;;;;;6.28;3.65;;;23.20;94.50;;;;;;5154511;27;20055;-70
2023/06/08 10:55:06;;;;;;;8.40;4.22;;;23.20;94.00;;;;;;5154797;27;20082;-72
2023/06/08 10:57:42;;;;;;;7.80;4.55;;;23.50;94.30;;;;;;5154351;27;20073;-72
2023/06/08 11:00:28;;;;;;;7.07;4.55;;;23.20;93.70;;;;;;5154529;27;20035;-72
2023/06/08 11:02:59;;;;;;;8.10;4.13;;;22.30;93.80;;;;;;5136117;27;20055;-71
2023/06/08 11:05:29;;;;;;;8.45;4.60;;;21.80;94.90;;;;;;5154248;27;20065;-72
2023/06/08 11:07:56;;;;;;;7.80;3.90;;;22.10;95.30;;;;;;5154227;27;20046;-72
2023/06/08 11:10:23;;;;;;;5.95;4.00;;;21.80;95.20;;;;;;5154462;27;20103;-72
2023/06/08 11:12:48;;;;;;;7.80;4.18;;;22.00;95.30;;;;;;5154409;27;20047;-72
2023/06/08 11:15:14;;;;;;;9.73;4.32;;;22.10;95.40;;;;;;5153902;27;20050;-71
2023/06/08 11:17:55;;;;;;;9.23;4.40;;;22.10;95.40;;;;;;5135078;27;20047;-72
2023/06/08 11:20:27;;;;;;;8.48;5.63;;;22.10;95.90;;;;;;5135888;27;20057;-71
2023/06/08 11:22:56;;;;;;;;;;;21.80;95.50;;;;;;5154685;27;20111;-72
2023/06/08 11:25:23;;;;;;;11.07;4.38;;;21.80;96.60;;;;;;5153912;27;19922;-73
2023/06/08 11:27:53;;;;;;;10.20;5.10;;;22.00;95.20;;;;;;5154074;27;20084;-70
2023/06/08 11:30:24;;;;;;;20.45;5.90;;;22.20;95.00;;;;;;5153521;27;20459;-72
2023/06/08 11:32:51;;;;;;;7.65;4.43;;;22.00;95.40;;;;;;5135295;27;20070;-70
2023/06/08 11:35:23;;;;;;;12.00;4.70;;;21.70;95.70;;;;;;5135340;27;20084;-72
2023/06/08 11:37:56;;;;;;;9.05;5.25;;;21.90;96.00;;;;;;5134982;27;20038;-72
2023/06/08 11:40:22;;;;;;;;;;;22.20;95.30;;;;;;5136063;27;20043;-72
2023/06/08 11:42:47;;;;;;;6.35;4.18;;;22.00;96.20;;;;;;5117956;27;19944;-71
2023/06/08 11:45:14;;;;;;;8.50;4.78;;;22.10;95.40;;;;;;5153102;27;20045;-73
2023/06/08 11:47:41;;;;;;;10.57;5.35;;;22.10;95.70;;;;;;5153472;27;20046;-72
2023/06/08 11:50:08;;;;;;;9.73;5.07;;;22.00;95.20;;;;;;5134966;27;20042;-72
2023/06/08 11:52:35;;;;;;;10.27;4.63;;;21.90;95.50;;;;;;5153702;27;20094;-73
2023/06/08 11:55:05;;;;;;;7.53;4.63;;;21.80;95.70;;;;;;5153349;27;20039;-72
2023/06/08 11:57:59;;;;;;;10.95;4.80;;;22.00;95.80;;;;;;5153051;27;20521;-72
2023/06/08 12:00:33;;;;;;;7.32;4.25;;;22.00;95.70;;;;;;5150110;27;20050;-73
2023/06/08 12:03:02;;;;;;;12.07;4.68;;;21.90;95.80;;;;;;5154015;27;20050;-73
2023/06/08 12:05:31;;;;;;;9.57;4.70;;;22.40;95.90;;;;;;5153417;27;20039;-72
2023/06/08 12:08:09;;;;;;;7.90;4.80;;;22.20;95.70;;;;;;5135560;27;20383;-72
2023/06/08 12:10:36;;;;;;;6.50;4.43;;;22.40;95.40;;;;;;5135307;27;20053;-73
2023/06/08 12:13:11;;;;;;;8.50;4.93;;;22.40;95.60;;;;;;5135130;27;20046;-71
2023/06/08 12:15:44;;;;;;;9.18;4.65;;;22.20;95.30;;;;;;5134902;27;20107;-70
2023/06/08 12:18:11;;;;;;;10.30;5.22;;;22.20;95.30;;;;;;5153178;27;20043;-72
2023/06/08 12:20:38;;;;;;;10.23;4.45;;;22.10;95.60;;;;;;5153095;27;20496;-71
2023/06/08 12:23:04;;;;;;;7.00;4.88;;;22.40;95.80;;;;;;5153148;27;20085;-70
2023/06/08 12:25:30;;;;;;;9.73;5.60;;;22.30;95.80;;;;;;5153185;27;20047;-70
2023/06/08 12:27:57;;;;;;;11.00;4.57;;;22.10;95.70;;;;;;5135080;27;20042;-71
2023/06/08 12:30:24;;;;;;;9.57;4.57;;;22.10;95.30;;;;;;5137959;27;20459;-74
2023/06/08 12:32:55;;;;;;;6.85;4.20;;;22.20;95.00;;;;;;5157473;27;20108;-76
2023/06/08 12:35:22;;;;;;;8.45;3.97;;;22.30;95.40;;;;;;5157626;27;20122;-74
2023/06/08 12:37:50;;;;;;;5.97;4.40;;;21.90;95.50;;;;;;5138950;27;20043;-74
2023/06/08 12:40:19;;;;;;;7.20;3.58;;;21.90;95.60;;;;;;5157069;27;20051;-76
2023/06/08 12:42:49;;;;;;;10.50;4.22;;;21.80;95.90;;;;;;5157154;27;20113;-71
2023/06/08 12:45:24;;;;;;;9.10;5.07;;;21.80;96.00;;;;;;5156980;27;20043;-72